Time;durP1;ratioP1;P1;durP2;ratioP2;P2;SDS_P1;SDS_P2;PMS_P1;PMS_P2;Temp;Humidity;BMP_temperature;BMP_pressure;BME280_temperature;BME280_humidity;BME280_pressure;Samples;Min_cycle;Max_cycle;Signal;HPM_P1;HPM_P2
2022/05/25 00:01:04;;;;;;;6.00;4.97;;;18.80;99.90;;;;;;5036289;28;20494;-70
2022/05/25 00:03:32;;;;;;;6.30;5.00;;;18.80;99.90;;;;;;5036316;28;20203;-70
2022/05/25 00:06:05;;;;;;;6.90;5.13;;;18.80;99.90;;;;;;5035992;28;20461;-70
2022/05/25 00:08:35;;;;;;;6.63;5.20;;;18.80;99.90;;;;;;5036103;28;20413;-70
2022/05/25 00:11:05;;;;;;;6.13;4.73;;;18.80;99.90;;;;;;5035846;28;20486;-70
2022/05/25 00:13:36;;;;;;;6.97;4.77;;;18.80;99.90;;;;;;5036608;28;20995;-70
2022/05/25 00:16:03;;;;;;;6.23;5.13;;;18.80;99.90;;;;;;5037591;28;20450;-70
2022/05/25 00:18:30;;;;;;;7.43;5.50;;;18.80;99.90;;;;;;5037126;28;20405;-70
2022/05/25 00:20:56;;;;;;;6.70;5.10;;;18.80;99.90;;;;;;5035872;28;20456;-70
2022/05/25 00:23:23;;;;;;;8.43;5.50;;;18.80;99.90;;;;;;5035700;28;20765;-70
2022/05/25 00:25:53;;;;;;;7.07;4.20;;;18.80;99.90;;;;;;5035848;28;20961;-71
2022/05/25 00:28:27;;;;;;;5.73;4.73;;;18.80;99.90;;;;;;5037080;28;20431;-70
2022/05/25 00:30:53;;;;;;;7.13;5.30;;;18.90;99.90;;;;;;5035234;28;20483;-70
2022/05/25 00:33:21;;;;;;;8.20;5.60;;;18.90;99.90;;;;;;5035898;28;20772;-70
2022/05/25 00:35:47;;;;;;;6.00;4.33;;;18.90;99.90;;;;;;5035736;28;20297;-70
2022/05/25 00:38:16;;;;;;;6.97;4.40;;;18.90;99.90;;;;;;5035389;28;20523;-70
2022/05/25 00:40:44;;;;;;;7.03;4.97;;;18.90;99.90;;;;;;5035516;28;20236;-70
2022/05/25 00:43:13;;;;;;;4.57;4.17;;;18.90;99.90;;;;;;5036646;28;20443;-70
2022/05/25 00:45:44;;;;;;;5.97;4.83;;;18.90;99.90;;;;;;5035399;28;20891;-70
2022/05/25 00:48:37;;;;;;;5.93;5.03;;;18.90;99.90;;;;;;5036387;28;20405;-70
2022/05/25 00:51:12;;;;;;;5.10;3.80;;;18.90;99.90;;;;;;5035137;28;20516;-70
2022/05/25 00:53:52;;;;;;;5.80;4.27;;;18.90;99.90;;;;;;5035040;28;20836;-70
2022/05/25 00:56:21;;;;;;;6.93;4.80;;;18.90;99.90;;;;;;5034890;28;20474;-70
2022/05/25 00:58:58;;;;;;;7.10;4.47;;;18.80;99.90;;;;;;5034901;28;20420;-70
2022/05/25 01:01:26;;;;;;;10.23;5.37;;;18.80;99.90;;;;;;5035084;28;20968;-70
2022/05/25 01:03:55;;;;;;;6.80;5.67;;;18.80;99.90;;;;;;5034926;28;20792;-70
2022/05/25 01:06:36;;;;;;;6.10;4.40;;;18.80;99.90;;;;;;5034301;28;20432;-69
2022/05/25 01:09:34;;;;;;;8.20;5.67;;;18.80;99.90;;;;;;5034736;28;20437;-70
2022/05/25 01:12:24;;;;;;;8.90;5.07;;;18.90;99.90;;;;;;5017775;28;20475;-71
2022/05/25 01:15:13;;;;;;;9.30;5.60;;;18.90;99.90;;;;;;5034803;28;20859;-70
2022/05/25 01:17:51;;;;;;;7.27;5.17;;;18.90;99.90;;;;;;5034776;28;20782;-71
2022/05/25 01:20:50;;;;;;;6.87;5.00;;;18.90;99.90;;;;;;5034393;28;20535;-70
2022/05/25 01:23:37;;;;;;;5.97;4.60;;;19.00;99.90;;;;;;5034661;28;20763;-70
2022/05/25 01:26:12;;;;;;;6.00;5.13;;;19.00;99.90;;;;;;5034854;28;20792;-70
2022/05/25 01:29:00;;;;;;;8.73;5.67;;;19.10;99.90;;;;;;5034558;28;20511;-70
2022/05/25 01:31:59;;;;;;;11.73;5.47;;;19.10;99.90;;;;;;5034601;28;20484;-71
2022/05/25 01:34:40;;;;;;;5.30;4.80;;;19.10;99.90;;;;;;5034418;28;20452;-70
2022/05/25 01:37:24;;;;;;;12.20;5.70;;;19.10;99.90;;;;;;5051034;28;20415;-71
2022/05/25 01:40:16;;;;;;;9.40;5.50;;;19.20;99.90;;;;;;5034400;28;20972;-70
2022/05/25 01:43:01;;;;;;;6.87;5.80;;;19.20;99.90;;;;;;5016743;28;21001;-71
2022/05/25 01:45:31;;;;;;;7.10;5.40;;;19.30;99.90;;;;;;5034265;28;20441;-70
2022/05/25 01:48:02;;;;;;;5.80;5.20;;;19.30;99.90;;;;;;5034251;28;20464;-70
2022/05/25 01:50:44;;;;;;;7.23;5.70;;;19.30;99.90;;;;;;5034160;28;21061;-70
2022/05/25 01:53:17;;;;;;;7.87;5.67;;;19.30;99.90;;;;;;5034423;28;20491;-70
2022/05/25 01:55:51;;;;;;;7.60;5.80;;;19.30;99.90;;;;;;5033969;28;20478;-70
2022/05/25 01:58:20;;;;;;;6.43;5.40;;;19.30;99.90;;;;;;5034088;28;20414;-70
2022/05/25 02:00:52;;;;;;;10.83;5.90;;;19.30;99.90;;;;;;5034077;28;20453;-70
2022/05/25 02:06:18;;;;;;;11.47;6.00;;;19.30;99.90;;;;;;5035943;28;20521;-71
2022/05/25 02:09:22;;;;;;;7.80;6.30;;;19.30;99.90;;;;;;5033637;28;20426;-70
2022/05/25 02:11:55;;;;;;;8.77;6.10;;;19.30;99.90;;;;;;5033936;28;20487;-70
2022/05/25 02:14:24;;;;;;;8.13;6.90;;;19.30;99.90;;;;;;5034156;28;20462;-70
2022/05/25 02:16:50;;;;;;;9.40;5.70;;;19.30;99.90;;;;;;5033727;28;20428;-70
2022/05/25 02:19:30;;;;;;;11.77;5.87;;;19.30;99.90;;;;;;5032927;28;20879;-70
2022/05/25 02:22:24;;;;;;;7.80;7.00;;;19.30;99.90;;;;;;5033914;28;20698;-70
2022/05/25 02:25:05;;;;;;;7.47;6.20;;;19.30;99.90;;;;;;5035001;28;20455;-70
2022/05/25 02:27:33;;;;;;;10.10;7.40;;;19.20;99.90;;;;;;5034000;28;20775;-70
2022/05/25 02:30:09;;;;;;;9.30;7.03;;;19.10;99.90;;;;;;5033743;28;20449;-70
2022/05/25 02:32:40;;;;;;;11.77;8.00;;;19.00;99.90;;;;;;5033990;28;20435;-70
2022/05/25 02:35:07;;;;;;;10.73;7.33;;;19.00;99.90;;;;;;5033460;28;20448;-70
2022/05/25 02:37:34;;;;;;;9.03;7.30;;;18.80;99.90;;;;;;5033626;28;20498;-70
2022/05/25 02:40:08;;;;;;;11.83;7.83;;;18.80;99.90;;;;;;5034692;28;20444;-70
2022/05/25 02:42:38;;;;;;;8.23;7.43;;;18.70;99.90;;;;;;5032809;28;20428;-70
2022/05/25 02:53:15;;;;;;;10.57;8.40;;;18.50;99.90;;;;;;5112317;28;20419;-69
2022/05/25 02:55:41;;;;;;;11.13;9.03;;;18.40;99.90;;;;;;5110725;28;20449;-69
2022/05/25 02:58:07;;;;;;;10.23;9.03;;;18.30;99.90;;;;;;5110452;28;20184;-69
2022/05/25 03:00:35;;;;;;;10.17;8.03;;;18.30;99.90;;;;;;5110257;28;20810;-69
2022/05/25 03:03:00;;;;;;;12.73;8.87;;;18.30;99.90;;;;;;5110220;28;20260;-69
2022/05/25 03:05:26;;;;;;;11.67;8.03;;;18.30;99.90;;;;;;5110406;28;20788;-69
2022/05/25 03:07:52;;;;;;;10.57;6.97;;;18.30;99.90;;;;;;5110345;28;20260;-69
2022/05/25 03:10:19;;;;;;;12.30;7.93;;;18.30;99.90;;;;;;5110195;28;20445;-69
2022/05/25 03:12:56;;;;;;;10.90;7.53;;;18.40;99.90;;;;;;5110252;28;20972;-69
2022/05/25 03:15:22;;;;;;;8.73;7.60;;;18.30;99.90;;;;;;5110243;28;20452;-69
2022/05/25 03:17:50;;;;;;;10.10;7.57;;;18.30;99.90;;;;;;5111495;28;20481;-71
2022/05/25 03:20:18;;;;;;;14.93;7.83;;;18.30;99.90;;;;;;5109599;28;20524;-72
2022/05/25 03:22:46;;;;;;;11.83;7.10;;;18.30;99.90;;;;;;5109611;28;20424;-71
2022/05/25 03:25:13;;;;;;;8.80;7.90;;;18.30;99.90;;;;;;5111281;28;20420;-72
2022/05/25 03:27:38;;;;;;;7.57;6.40;;;18.30;99.90;;;;;;5109993;28;20475;-71
2022/05/25 03:30:06;;;;;;;8.70;7.03;;;18.30;99.90;;;;;;5109711;28;20952;-71
2022/05/25 03:32:33;;;;;;;8.30;7.10;;;18.30;99.90;;;;;;5109789;28;20425;-71
2022/05/25 03:35:02;;;;;;;10.97;7.20;;;18.20;99.90;;;;;;5109578;28;20811;-71
2022/05/25 03:37:30;;;;;;;7.20;6.20;;;18.20;99.90;;;;;;5109961;28;20412;-71
2022/05/25 03:39:55;;;;;;;11.37;6.70;;;18.20;99.90;;;;;;5109563;28;20449;-71
2022/05/25 03:42:22;;;;;;;8.30;7.00;;;18.20;99.90;;;;;;5109679;28;20416;-72
2022/05/25 03:44:49;;;;;;;10.10;6.63;;;18.10;99.90;;;;;;5109490;28;20283;-71
2022/05/25 03:47:16;;;;;;;9.80;7.27;;;18.10;99.90;;;;;;5109064;28;20564;-72
2022/05/25 03:49:46;;;;;;;14.50;7.27;;;18.10;99.90;;;;;;5109095;28;20880;-71
2022/05/25 03:52:12;;;;;;;8.20;6.70;;;18.10;99.90;;;;;;5109083;28;20432;-71
2022/05/25 03:54:38;;;;;;;9.70;7.53;;;18.10;99.90;;;;;;5109171;28;20443;-72
2022/05/25 03:57:06;;;;;;;11.57;7.63;;;18.20;99.90;;;;;;5109328;28;20648;-72
2022/05/25 03:59:35;;;;;;;10.10;7.87;;;18.20;99.90;;;;;;5101461;28;20459;-72
2022/05/25 04:02:01;;;;;;;9.13;7.00;;;18.20;99.90;;;;;;5095327;28;20485;-72
2022/05/25 04:04:27;;;;;;;10.00;7.70;;;18.30;99.90;;;;;;5095205;28;20456;-72
2022/05/25 04:06:53;;;;;;;12.80;8.33;;;18.30;99.90;;;;;;5095201;28;20416;-71
2022/05/25 04:09:22;;;;;;;9.80;8.70;;;18.30;99.90;;;;;;5095314;28;20458;-71
2022/05/25 04:11:49;;;;;;;8.60;7.33;;;18.40;99.90;;;;;;5095467;28;20416;-72
2022/05/25 04:14:17;;;;;;;9.77;7.70;;;18.40;99.90;;;;;;5096441;28;20548;-71
2022/05/25 04:16:44;;;;;;;8.17;7.23;;;18.40;99.90;;;;;;5096475;28;20530;-72
2022/05/25 04:19:11;;;;;;;10.67;8.97;;;18.40;99.90;;;;;;5095105;28;20452;-71
2022/05/25 04:21:39;;;;;;;11.27;7.80;;;18.50;99.90;;;;;;5094916;28;20466;-72
2022/05/25 04:24:12;;;;;;;11.10;8.40;;;18.50;99.90;;;;;;5095058;28;20478;-72
2022/05/25 04:26:40;;;;;;;10.60;8.17;;;18.60;99.90;;;;;;5095207;28;20915;-72
2022/05/25 04:29:07;;;;;;;9.97;8.30;;;18.60;99.90;;;;;;5094958;28;20519;-71
2022/05/25 04:31:33;;;;;;;11.70;8.67;;;18.70;99.90;;;;;;5094619;28;20398;-72
2022/05/25 04:33:59;;;;;;;9.43;7.70;;;18.70;99.90;;;;;;5092873;28;20445;-71
2022/05/25 04:36:31;;;;;;;13.97;8.90;;;18.80;99.90;;;;;;5093547;28;20410;-73
2022/05/25 04:39:01;;;;;;;10.80;8.20;;;18.90;99.90;;;;;;5094372;28;20209;-72
2022/05/25 04:41:27;;;;;;;14.00;8.03;;;19.00;99.90;;;;;;5095103;28;20459;-72
2022/05/25 04:44:00;;;;;;;11.67;8.30;;;19.00;99.90;;;;;;5092691;28;20445;-72
2022/05/25 04:46:26;;;;;;;10.30;7.87;;;19.10;99.90;;;;;;5094174;28;20950;-71
2022/05/25 04:48:55;;;;;;;9.63;7.40;;;19.10;99.90;;;;;;5094395;28;20517;-71
2022/05/25 04:51:22;;;;;;;9.33;7.57;;;19.10;99.90;;;;;;5092761;28;20266;-72
2022/05/25 04:53:49;;;;;;;12.17;7.97;;;19.10;99.90;;;;;;5094325;28;20522;-71
2022/05/25 04:59:03;;;;;;;9.90;7.63;;;19.20;99.90;;;;;;5091767;28;20797;-72
2022/05/25 05:01:31;;;;;;;16.07;8.40;;;19.30;99.90;;;;;;5093382;28;20429;-72
2022/05/25 05:03:57;;;;;;;9.47;7.97;;;19.30;99.90;;;;;;5092554;28;20878;-72
2022/05/25 05:06:26;;;;;;;10.70;8.47;;;19.30;99.90;;;;;;5094037;28;20434;-72
2022/05/25 05:08:51;;;;;;;10.30;8.37;;;19.40;99.90;;;;;;5093821;28;20600;-71
2022/05/25 05:11:18;;;;;;;11.63;8.50;;;19.40;99.90;;;;;;5092987;28;20464;-72
2022/05/25 05:13:45;;;;;;;12.43;9.10;;;19.50;99.90;;;;;;5094114;28;20181;-71
2022/05/25 05:16:14;;;;;;;7.77;6.97;;;19.50;99.90;;;;;;5094333;28;20415;-71
2022/05/25 05:18:42;;;;;;;9.00;7.23;;;19.60;99.90;;;;;;5094088;28;20419;-71
2022/05/25 05:21:09;;;;;;;13.10;8.30;;;19.60;99.90;;;;;;5092433;28;20960;-72
2022/05/25 05:23:37;;;;;;;10.47;7.00;;;19.70;99.90;;;;;;5092247;28;20423;-71
2022/05/25 05:26:04;;;;;;;11.90;8.10;;;19.80;99.90;;;;;;5093430;28;20439;-71
2022/05/25 05:28:42;;;;;;;10.07;8.70;;;19.80;99.90;;;;;;5089960;28;20891;-71
2022/05/25 05:31:09;;;;;;;9.73;8.30;;;19.80;99.90;;;;;;5086045;28;20444;-71
2022/05/25 05:33:36;;;;;;;11.17;9.73;;;19.90;99.90;;;;;;5088708;28;20424;-71
2022/05/25 05:36:14;;;;;;;15.40;7.70;;;20.00;99.90;;;;;;5093043;28;20464;-71
2022/05/25 05:38:49;;;;;;;8.40;7.47;;;20.00;99.90;;;;;;5091342;28;20529;-71
2022/05/25 05:41:18;;;;;;;20.43;15.10;;;20.10;99.90;;;;;;5092229;28;20888;-71
2022/05/25 05:43:46;;;;;;;9.40;7.70;;;20.20;99.90;;;;;;5089325;28;20524;-71
2022/05/25 05:46:13;;;;;;;10.57;8.67;;;20.20;99.90;;;;;;5093015;28;20427;-70
2022/05/25 05:48:43;;;;;;;9.40;7.17;;;20.20;99.90;;;;;;5090859;28;20592;-70
2022/05/25 05:51:21;;;;;;;9.90;8.80;;;20.30;99.90;;;;;;5083457;28;21044;-70
2022/05/25 05:53:49;;;;;;;9.47;8.10;;;20.30;99.90;;;;;;5092177;28;20534;-70
2022/05/25 05:56:19;;;;;;;9.10;7.77;;;20.40;99.90;;;;;;5091729;28;20989;-71
2022/05/25 05:58:48;;;;;;;7.17;6.37;;;20.40;99.90;;;;;;5086762;28;20442;-70
2022/05/25 06:01:17;;;;;;;9.03;7.07;;;20.50;99.90;;;;;;5090258;28;20428;-70
2022/05/25 06:03:44;;;;;;;8.67;7.87;;;20.50;99.90;;;;;;5081184;28;20470;-68
2022/05/25 06:06:10;;;;;;;9.07;7.50;;;20.50;99.90;;;;;;5071937;28;20497;-69
2022/05/25 06:08:36;;;;;;;8.33;6.87;;;20.60;99.90;;;;;;5078416;28;20893;-68
2022/05/25 06:11:02;;;;;;;8.23;6.73;;;20.60;99.90;;;;;;5082112;28;20585;-67
2022/05/25 06:13:33;;;;;;;9.70;7.47;;;20.70;99.90;;;;;;5088212;28;20645;-68
2022/05/25 06:21:29;;;;;;;8.70;7.30;;;20.90;99.90;;;;;;5068821;28;20896;-70
2022/05/25 06:23:57;;;;;;;6.93;5.80;;;20.90;99.90;;;;;;5068088;28;20504;-69
2022/05/25 06:26:27;;;;;;;7.20;6.50;;;21.00;99.90;;;;;;5087852;28;20176;-69
2022/05/25 06:28:54;;;;;;;9.13;6.70;;;21.00;99.90;;;;;;5084072;28;21144;-71
2022/05/25 06:31:20;;;;;;;8.10;7.20;;;21.10;99.90;;;;;;5088020;28;20417;-69
2022/05/25 06:34:02;;;;;;;7.20;6.10;;;21.20;99.90;;;;;;5086285;28;20808;-69
2022/05/25 06:36:29;;;;;;;7.83;6.73;;;21.30;99.90;;;;;;5084254;28;20237;-70
2022/05/25 06:38:56;;;;;;;8.10;7.40;;;21.30;99.90;;;;;;5082893;28;20433;-69
2022/05/25 06:41:33;;;;;;;11.40;6.60;;;21.30;99.90;;;;;;5081370;28;20413;-70
2022/05/25 06:44:01;;;;;;;7.50;6.80;;;21.40;99.90;;;;;;5088152;28;20456;-71
2022/05/25 06:46:33;;;;;;;7.50;6.47;;;21.40;99.90;;;;;;5091197;28;21009;-72
2022/05/25 06:48:59;;;;;;;7.80;6.77;;;21.50;99.90;;;;;;5091049;28;20240;-70
2022/05/25 06:51:30;;;;;;;8.90;6.40;;;21.60;99.90;;;;;;5091546;28;20447;-70
2022/05/25 06:53:57;;;;;;;8.20;6.73;;;21.60;99.90;;;;;;5088913;28;20781;-70
2022/05/25 06:56:24;;;;;;;6.53;5.93;;;21.60;99.90;;;;;;5089250;28;20999;-70
2022/05/25 06:58:53;;;;;;;7.73;6.90;;;21.70;99.90;;;;;;5089018;28;20443;-70
2022/05/25 07:01:24;;;;;;;6.87;6.17;;;21.70;99.90;;;;;;5089562;28;20941;-71
2022/05/25 07:03:52;;;;;;;7.00;6.00;;;21.80;99.90;;;;;;5088397;28;20429;-71
2022/05/25 07:06:23;;;;;;;8.17;6.10;;;21.90;99.90;;;;;;5087835;28;20523;-70
2022/05/25 07:08:49;;;;;;;9.87;6.50;;;21.90;99.90;;;;;;5088251;28;20769;-71
2022/05/25 07:11:15;;;;;;;10.00;5.70;;;22.00;99.90;;;;;;5085206;28;20963;-71
2022/05/25 07:13:41;;;;;;;8.20;6.47;;;22.00;99.90;;;;;;5082554;28;20430;-71
2022/05/25 07:16:10;;;;;;;8.13;5.60;;;22.10;99.90;;;;;;5070038;28;20185;-70
2022/05/25 07:18:38;;;;;;;8.30;5.37;;;22.10;99.90;;;;;;5079658;28;20186;-70
2022/05/25 07:21:12;;;;;;;6.77;6.10;;;22.10;99.90;;;;;;5083519;28;20439;-70
2022/05/25 07:23:40;;;;;;;6.93;6.07;;;22.10;99.90;;;;;;5081199;28;20503;-70
2022/05/25 07:26:07;;;;;;;7.38;6.13;;;22.10;99.90;;;;;;5086321;28;20810;-70
2022/05/25 07:28:34;;;;;;;8.70;6.90;;;22.20;99.90;;;;;;5090219;28;20200;-70
2022/05/25 07:31:51;;;;;;;7.10;6.23;;;22.20;99.90;;;;;;5090785;28;20453;-70
2022/05/25 07:34:33;;;;;;;7.23;6.53;;;22.20;99.90;;;;;;5071143;28;20480;-70
2022/05/25 07:37:11;;;;;;;6.43;5.83;;;22.30;99.90;;;;;;5094604;28;20439;-70
2022/05/25 07:39:43;;;;;;;7.00;6.30;;;22.30;99.90;;;;;;5110929;28;20793;-70
2022/05/25 07:42:14;;;;;;;8.93;5.97;;;22.30;99.90;;;;;;5108544;28;20787;-70
2022/05/25 07:44:52;;;;;;;7.63;6.33;;;22.40;99.90;;;;;;5090606;28;20484;-70
2022/05/25 07:47:20;;;;;;;6.87;5.37;;;22.50;99.90;;;;;;5092577;28;20511;-71
2022/05/25 07:49:46;;;;;;;7.47;6.20;;;22.60;99.90;;;;;;5083031;28;20865;-70
2022/05/25 07:52:14;;;;;;;7.73;6.93;;;22.70;99.90;;;;;;5089399;28;20547;-70
2022/05/25 07:54:47;;;;;;;8.57;6.20;;;22.80;99.90;;;;;;5087746;28;20449;-71
2022/05/25 07:57:18;;;;;;;9.47;7.07;;;22.80;99.90;;;;;;5092228;28;20501;-70
2022/05/25 07:59:51;;;;;;;7.30;6.33;;;22.90;99.90;;;;;;5092962;28;20504;-70
2022/05/25 08:05:44;;;;;;;6.80;6.20;;;23.20;99.90;;;;;;5086796;28;20572;-68
2022/05/25 08:08:22;;;;;;;9.47;6.23;;;23.30;99.90;;;;;;5091673;28;20484;-68
2022/05/25 08:10:51;;;;;;;8.13;6.80;;;23.40;99.90;;;;;;5076361;28;20527;-68
2022/05/25 08:13:21;;;;;;;7.93;7.13;;;23.50;99.90;;;;;;5086229;28;20522;-70
2022/05/25 08:15:48;;;;;;;10.00;5.83;;;23.60;99.90;;;;;;5087132;28;20825;-68
2022/05/25 08:21:14;;;;;;;7.53;6.93;;;23.80;99.90;;;;;;5324785;22;20483;-69
2022/05/25 08:23:40;;;;;;;7.43;6.70;;;23.90;99.90;;;;;;5090782;28;20868;-70
2022/05/25 08:26:06;;;;;;;7.00;6.30;;;24.00;99.90;;;;;;5076415;28;20190;-70
2022/05/25 08:28:31;;;;;;;7.90;7.10;;;24.00;99.90;;;;;;5071804;28;20545;-69
2022/05/25 08:30:57;;;;;;;7.53;6.63;;;24.00;99.90;;;;;;5092177;28;20560;-70
2022/05/25 08:33:45;;;;;;;7.93;7.07;;;24.10;99.90;;;;;;5093365;28;20181;-69
2022/05/25 08:36:10;;;;;;;10.20;7.00;;;24.20;99.90;;;;;;5056619;28;20422;-70
2022/05/25 08:38:43;;;;;;;9.30;7.57;;;24.20;99.90;;;;;;5074277;28;20430;-69
2022/05/25 08:41:16;;;;;;;10.10;7.10;;;24.30;99.90;;;;;;5069142;28;20478;-69
2022/05/25 08:43:46;;;;;;;8.07;7.30;;;24.40;99.90;;;;;;5075406;28;20445;-69
2022/05/25 08:46:16;;;;;;;8.07;6.93;;;24.40;99.90;;;;;;5083992;28;20442;-69
2022/05/25 08:48:43;;;;;;;8.63;7.90;;;24.40;99.90;;;;;;5071592;28;21095;-69
2022/05/25 08:51:13;;;;;;;9.73;7.57;;;24.50;99.90;;;;;;5090531;28;20881;-69
2022/05/25 08:53:54;;;;;;;10.13;6.83;;;24.60;99.90;;;;;;5073640;28;20422;-70
2022/05/25 08:56:49;;;;;;;8.40;7.50;;;24.60;99.90;;;;;;5068145;28;21141;-69
2022/05/25 08:59:24;;;;;;;8.10;6.70;;;24.60;99.90;;;;;;5069501;28;20462;-69
2022/05/25 09:02:00;;;;;;;9.17;7.30;;;24.70;99.90;;;;;;5072121;28;20955;-69
2022/05/25 09:04:49;;;;;;;7.17;6.47;;;24.70;99.90;;;;;;5063551;28;20597;-69
2022/05/25 09:07:40;;;;;;;8.33;6.50;;;24.70;99.90;;;;;;5066661;28;20452;-70
2022/05/25 09:10:12;;;;;;;10.03;7.70;;;24.70;99.90;;;;;;5028448;28;20555;-69
2022/05/25 09:12:49;;;;;;;7.57;6.87;;;24.80;99.90;;;;;;5097533;28;20495;-70
2022/05/25 09:15:23;;;;;;;8.33;7.40;;;24.90;99.90;;;;;;5069255;28;20460;-71
2022/05/25 09:18:13;;;;;;;10.77;9.37;;;24.80;99.90;;;;;;5067384;28;20436;-70
2022/05/25 09:20:45;;;;;;;7.80;6.90;;;24.80;99.90;;;;;;5085725;28;20838;-70
2022/05/25 09:23:14;;;;;;;7.70;6.90;;;24.90;99.90;;;;;;5074182;28;20447;-71
2022/05/25 09:25:47;;;;;;;8.77;7.63;;;24.90;99.90;;;;;;5070904;28;20422;-69
2022/05/25 09:28:31;;;;;;;9.03;6.90;;;25.00;99.90;;;;;;5094007;28;20203;-70
2022/05/25 09:31:02;;;;;;;8.40;7.30;;;25.20;99.90;;;;;;5070526;28;20484;-68
2022/05/25 09:34:05;;;;;;;8.77;7.27;;;25.30;99.90;;;;;;5070479;28;20445;-73
2022/05/25 09:36:56;;;;;;;8.70;7.80;;;25.40;99.90;;;;;;5061331;28;20420;-70
2022/05/25 09:40:19;;;;;;;8.37;7.03;;;25.50;99.90;;;;;;5071868;28;20468;-70
2022/05/25 09:43:11;;;;;;;8.93;7.67;;;25.50;99.90;;;;;;5059163;28;20453;-71
2022/05/25 09:45:51;;;;;;;8.43;7.63;;;25.50;99.90;;;;;;5070901;28;20445;-71
2022/05/25 09:48:24;;;;;;;8.40;6.77;;;25.50;99.90;;;;;;5071134;28;21172;-69
2022/05/25 09:51:02;;;;;;;10.13;7.20;;;25.50;99.90;;;;;;5070205;28;20460;-69
2022/05/25 09:53:39;;;;;;;8.07;7.33;;;25.50;99.90;;;;;;5069327;28;20443;-71
2022/05/25 09:56:29;;;;;;;8.73;7.03;;;25.60;99.90;;;;;;5066059;28;20429;-71
2022/05/25 09:59:06;;;;;;;8.80;8.00;;;25.60;99.90;;;;;;5070678;28;20933;-71
2022/05/25 10:01:52;;;;;;;8.73;6.87;;;25.70;99.90;;;;;;5072629;28;20994;-69
2022/05/25 10:04:37;;;;;;;8.73;7.83;;;25.80;99.90;;;;;;5071582;28;20547;-69
2022/05/25 10:07:18;;;;;;;8.97;7.80;;;25.80;99.90;;;;;;5072231;28;20770;-71
2022/05/25 10:09:59;;;;;;;11.57;8.70;;;25.80;99.90;;;;;;5063717;28;20797;-72
2022/05/25 10:12:49;;;;;;;8.83;7.90;;;25.80;99.90;;;;;;5071073;28;20519;-72
2022/05/25 10:15:31;;;;;;;8.00;7.20;;;25.90;99.90;;;;;;5069331;28;21252;-68
2022/05/25 10:17:59;;;;;;;12.77;8.00;;;25.90;99.90;;;;;;5073863;28;20787;-71
2022/05/25 10:20:56;;;;;;;8.10;7.30;;;25.90;99.90;;;;;;5067932;28;20933;-71
2022/05/25 10:23:26;;;;;;;8.33;7.27;;;25.90;99.90;;;;;;5065639;28;20532;-69
2022/05/25 10:25:56;;;;;;;7.77;7.00;;;26.00;99.90;;;;;;5070373;28;20456;-69
2022/05/25 10:28:34;;;;;;;8.67;7.77;;;26.00;99.90;;;;;;5075309;28;20955;-69
2022/05/25 10:36:59;;;;;;;8.73;7.80;;;26.10;99.90;;;;;;5089428;28;20882;-71
2022/05/25 10:39:33;;;;;;;8.67;7.80;;;26.10;99.90;;;;;;5063260;28;20484;-68
2022/05/25 10:41:59;;;;;;;8.30;7.40;;;26.20;99.90;;;;;;5069011;28;20433;-70
2022/05/25 10:47:27;;;;;;;8.50;7.40;;;26.20;99.90;;;;;;5085364;28;20436;-69
2022/05/25 10:49:53;;;;;;;8.00;7.20;;;26.20;99.90;;;;;;5070355;28;20453;-69
2022/05/25 10:52:32;;;;;;;8.47;7.43;;;26.30;99.90;;;;;;5067866;28;20422;-71
2022/05/25 10:54:58;;;;;;;10.03;7.37;;;26.30;99.90;;;;;;5054358;28;20472;-70
2022/05/25 10:57:58;;;;;;;10.00;8.10;;;26.30;99.90;;;;;;5063530;28;20837;-71
2022/05/25 11:00:30;;;;;;;8.50;7.60;;;26.40;99.90;;;;;;5053253;28;20855;-69
2022/05/25 11:03:22;;;;;;;9.00;7.77;;;26.40;99.90;;;;;;5070652;28;20623;-73
2022/05/25 11:06:13;;;;;;;11.03;7.93;;;26.40;99.90;;;;;;5065095;28;20821;-71
2022/05/25 11:09:06;;;;;;;8.93;8.13;;;26.50;99.90;;;;;;5063814;28;20469;-71
2022/05/25 11:11:38;;;;;;;10.00;7.97;;;26.50;99.90;;;;;;5067401;28;20918;-71
2022/05/25 11:14:39;;;;;;;8.00;7.30;;;26.60;99.90;;;;;;5069541;28;20875;-71
2022/05/25 11:17:30;;;;;;;8.90;7.97;;;26.60;99.90;;;;;;5070255;28;20455;-72
2022/05/25 11:20:06;;;;;;;8.50;7.70;;;26.70;99.90;;;;;;5074017;28;20468;-72
2022/05/25 11:22:39;;;;;;;8.23;7.43;;;26.70;99.90;;;;;;5071445;28;20544;-71
2022/05/25 11:25:42;;;;;;;8.13;7.33;;;26.80;99.90;;;;;;5073792;28;20540;-71
2022/05/25 11:28:14;;;;;;;9.97;8.20;;;26.90;99.90;;;;;;5073552;28;20965;-71
2022/05/25 11:31:13;;;;;;;8.30;7.47;;;26.90;99.90;;;;;;5075169;28;20464;-71
2022/05/25 11:34:11;;;;;;;8.23;7.43;;;27.00;99.90;;;;;;5090681;28;20425;-70
2022/05/25 11:37:14;;;;;;;8.60;7.50;;;27.10;99.90;;;;;;5072767;28;20630;-69
2022/05/25 11:40:19;;;;;;;9.17;8.27;;;27.10;99.90;;;;;;5069993;28;20460;-70
2022/05/25 11:43:02;;;;;;;9.10;8.23;;;27.20;99.90;;;;;;5072314;28;20980;-69
2022/05/25 11:45:51;;;;;;;7.60;6.80;;;27.20;99.90;;;;;;5090206;28;20484;-71
2022/05/25 11:48:34;;;;;;;8.00;7.30;;;27.20;99.90;;;;;;5089763;28;20978;-71
2022/05/25 11:51:24;;;;;;;8.93;6.90;;;27.20;99.90;;;;;;5074814;28;20444;-70
2022/05/25 11:54:28;;;;;;;8.43;7.53;;;27.30;99.90;;;;;;5073689;28;20478;-70
2022/05/25 11:57:29;;;;;;;8.27;7.53;;;27.40;99.90;;;;;;5073465;28;20486;-70
2022/05/25 12:00:29;;;;;;;9.27;8.00;;;27.40;99.90;;;;;;5007233;28;20449;-71
2022/05/25 12:03:35;;;;;;;8.83;7.17;;;27.50;99.90;;;;;;5091783;28;20416;-70
2022/05/25 12:06:14;;;;;;;8.60;7.83;;;27.50;99.90;;;;;;5044828;28;20720;-70
2022/05/25 12:09:00;;;;;;;7.07;6.37;;;27.50;99.90;;;;;;5067874;28;20581;-71
2022/05/25 12:11:58;;;;;;;7.13;6.53;;;27.60;99.90;;;;;;5077139;28;20953;-71
2022/05/25 12:14:39;;;;;;;7.60;6.90;;;27.60;99.90;;;;;;5075076;28;20460;-71
2022/05/25 12:17:22;;;;;;;7.50;6.80;;;27.70;99.90;;;;;;5073953;28;20846;-70
2022/05/25 12:19:50;;;;;;;7.77;7.07;;;27.70;99.90;;;;;;5065903;28;20477;-71
2022/05/25 12:22:21;;;;;;;8.20;7.50;;;27.80;99.90;;;;;;5065067;28;20786;-72
2022/05/25 12:24:51;;;;;;;8.43;6.90;;;27.90;99.90;;;;;;5072492;28;20465;-71
2022/05/25 12:27:22;;;;;;;8.07;7.27;;;27.90;99.90;;;;;;5073671;28;20524;-71
2022/05/25 12:29:54;;;;;;;6.90;6.20;;;27.90;99.90;;;;;;5072845;28;20495;-71
2022/05/25 12:32:20;;;;;;;6.93;6.23;;;28.00;99.90;;;;;;5069557;28;20432;-71
2022/05/25 12:34:52;;;;;;;7.80;7.00;;;28.00;99.90;;;;;;5074933;28;20449;-72
2022/05/25 12:37:36;;;;;;;9.43;7.70;;;28.00;99.90;;;;;;5072054;28;20558;-69
2022/05/25 12:40:36;;;;;;;8.90;7.73;;;28.00;99.90;;;;;;5059875;28;20452;-71
2022/05/25 12:43:02;;;;;;;8.03;7.30;;;28.10;99.90;;;;;;5063228;28;20800;-70
2022/05/25 12:48:33;;;;;;;8.90;6.93;;;28.10;99.90;;;;;;5086778;28;20308;-70
2022/05/25 12:51:11;;;;;;;7.70;6.90;;;28.20;99.90;;;;;;5054258;28;20468;-72
2022/05/25 12:53:39;;;;;;;8.47;7.17;;;28.20;99.90;;;;;;5088439;28;20803;-70
2022/05/25 12:56:15;;;;;;;9.60;7.17;;;28.20;99.90;;;;;;5072103;28;20452;-72
2022/05/25 12:58:47;;;;;;;6.97;6.37;;;28.20;99.90;;;;;;5068251;28;20435;-71
2022/05/25 13:01:26;;;;;;;7.17;6.57;;;28.20;99.90;;;;;;5075787;28;20438;-70
2022/05/25 13:03:55;;;;;;;8.93;7.93;;;28.20;99.90;;;;;;5070557;28;20436;-72
2022/05/25 13:06:33;;;;;;;8.43;7.60;;;28.30;99.90;;;;;;5073214;28;20516;-70
2022/05/25 13:09:07;;;;;;;8.23;7.37;;;28.30;99.90;;;;;;5075084;28;20477;-70
2022/05/25 13:11:41;;;;;;;8.07;7.23;;;28.40;99.90;;;;;;5074751;28;20765;-71
2022/05/25 13:14:16;;;;;;;8.00;7.30;;;28.40;99.90;;;;;;5067822;28;20512;-71
2022/05/25 13:16:42;;;;;;;9.03;7.43;;;28.40;99.90;;;;;;5064547;28;20445;-70
2022/05/25 13:19:21;;;;;;;6.47;5.87;;;28.40;99.90;;;;;;5068871;28;21195;-70
2022/05/25 13:22:02;;;;;;;9.00;7.00;;;28.40;99.90;;;;;;5072819;28;20875;-71
2022/05/25 13:24:41;;;;;;;7.70;7.00;;;28.40;99.90;;;;;;5069047;28;20789;-70
2022/05/25 13:27:43;;;;;;;9.77;8.20;;;28.40;99.90;;;;;;5058004;28;20934;-71
2022/05/25 13:30:40;;;;;;;7.97;7.17;;;28.40;99.90;;;;;;5062344;28;20468;-71
2022/05/25 13:33:25;;;;;;;7.00;6.30;;;28.50;99.90;;;;;;5061163;28;20450;-70
2022/05/25 13:36:12;;;;;;;9.23;6.77;;;28.50;99.90;;;;;;5059288;28;20459;-71
2022/05/25 13:38:56;;;;;;;7.53;6.83;;;28.50;99.90;;;;;;5068565;28;20446;-70
2022/05/25 13:41:42;;;;;;;7.33;5.47;;;28.60;99.90;;;;;;5070156;28;20777;-70
2022/05/25 13:44:26;;;;;;;6.10;5.60;;;28.60;99.90;;;;;;5065433;28;20446;-70
2022/05/25 13:46:54;;;;;;;6.70;5.90;;;28.70;99.90;;;;;;5047328;28;20781;-70
2022/05/25 13:49:20;;;;;;;6.63;5.70;;;28.80;99.90;;;;;;5057944;28;20479;-70
2022/05/25 13:51:47;;;;;;;6.77;6.17;;;28.90;99.90;;;;;;5050988;28;20415;-70
2022/05/25 13:54:51;;;;;;;9.00;6.20;;;28.90;99.90;;;;;;5050451;28;20438;-71
2022/05/25 13:57:38;;;;;;;6.17;5.57;;;29.00;99.90;;;;;;5049970;28;20586;-71
2022/05/25 14:00:38;;;;;;;6.20;5.70;;;29.00;99.90;;;;;;5053225;28;20468;-70
2022/05/25 14:03:18;;;;;;;6.63;5.87;;;29.10;99.90;;;;;;5038447;28;20555;-71